createdAt,value
2017-12-10T00:01:49.184Z,1002.73
2017-12-10T00:02:48.674Z,1002.69
2017-12-10T00:04:44.617Z,1002.65
2017-12-10T00:05:45.114Z,1002.56
2017-12-10T00:07:39.044Z,1002.63
2017-12-10T00:08:38.999Z,1002.57
2017-12-10T00:10:33.956Z,1002.53
2017-12-10T00:11:33.430Z,1002.48
2017-12-10T00:13:28.872Z,1002.50
2017-12-10T00:14:27.847Z,1002.39
2017-12-10T00:16:22.293Z,1002.43
2017-12-10T00:17:21.299Z,1002.38
2017-12-10T00:19:16.226Z,1002.37
2017-12-10T00:20:15.686Z,1002.32
2017-12-10T00:22:11.641Z,1002.22
2017-12-10T00:23:11.603Z,1002.18
2017-12-10T00:25:08.043Z,1002.18
2017-12-10T00:26:07.514Z,1002.17
2017-12-10T00:28:02.463Z,1002.11
2017-12-10T00:29:01.961Z,1002.06
2017-12-10T00:30:56.402Z,1002.02
2017-12-10T00:31:55.398Z,1002.01
2017-12-10T00:33:51.370Z,1001.99
2017-12-10T00:34:51.334Z,1001.97
2017-12-10T00:36:47.279Z,1001.98
2017-12-10T00:37:47.253Z,1001.95
2017-12-10T00:39:43.195Z,1001.87
2017-12-10T00:40:43.182Z,1001.88
2017-12-10T00:42:38.120Z,1001.85
2017-12-10T00:43:37.584Z,1001.87
2017-12-10T00:45:32.049Z,1001.74
2017-12-10T00:46:32.518Z,1001.74
2017-12-10T00:48:27.985Z,1001.64
2017-12-10T00:49:28.460Z,1001.69
2017-12-10T00:51:22.887Z,1001.62
2017-12-10T00:52:22.368Z,1001.50
2017-12-10T00:54:16.782Z,1001.55
2017-12-10T00:55:17.312Z,1001.57
2017-12-10T00:57:11.242Z,1001.52
2017-12-10T00:58:11.208Z,1001.50
2017-12-10T01:00:07.183Z,1001.41
2017-12-10T01:01:07.141Z,1001.46
2017-12-10T01:03:02.101Z,1001.43
2017-12-10T01:04:01.554Z,1001.43
2017-12-10T01:05:57.530Z,1001.41
2017-12-10T01:06:57.501Z,1001.38
2017-12-10T01:08:50.957Z,1001.35
2017-12-10T01:09:50.924Z,1001.36
2017-12-10T01:11:45.356Z,1001.31
2017-12-10T01:12:45.863Z,1001.28
2017-12-10T01:14:41.331Z,1001.20
2017-12-10T01:15:41.290Z,1001.21
2017-12-10T01:17:36.729Z,1001.18
2017-12-10T01:18:36.236Z,1001.16
2017-12-10T01:20:32.162Z,1001.09
2017-12-10T01:21:32.157Z,1001.05
2017-12-10T01:23:26.051Z,1001.10
2017-12-10T01:24:26.600Z,1001.12
2017-12-10T01:26:20.712Z,1001.05
2017-12-10T01:27:20.492Z,1001.02
2017-12-10T01:29:17.446Z,1000.95
2017-12-10T01:30:17.873Z,1000.95
2017-12-10T01:32:11.376Z,1000.89
2017-12-10T01:33:10.862Z,1000.85
2017-12-10T01:35:04.333Z,1000.73
2017-12-10T01:36:04.285Z,1000.73
2017-12-10T01:37:58.716Z,1000.70
2017-12-10T01:38:58.706Z,1000.70
2017-12-10T01:40:52.163Z,1000.64
2017-12-10T01:41:52.159Z,1000.66
2017-12-10T01:43:46.605Z,1000.66
2017-12-10T01:44:46.562Z,1000.67
2017-12-10T01:46:41.018Z,1000.70
2017-12-10T01:47:41.528Z,1000.65
2017-12-10T01:49:34.397Z,1000.63
2017-12-10T01:50:34.924Z,1000.65
2017-12-10T01:52:30.351Z,1000.62
2017-12-10T01:53:30.305Z,1000.54
2017-12-10T01:55:27.257Z,1000.56
2017-12-10T01:56:26.232Z,1000.53
2017-12-10T01:58:22.182Z,1000.33
2017-12-10T01:59:22.164Z,1000.37
2017-12-10T02:01:16.599Z,1000.34
2017-12-10T02:02:16.593Z,1000.34
2017-12-10T02:04:11.535Z,1000.27
2017-12-10T02:05:11.011Z,1000.23
2017-12-10T02:07:05.430Z,1000.22
2017-12-10T02:08:06.947Z,1000.17
2017-12-10T02:09:59.866Z,1000.09
2017-12-10T02:10:59.862Z,1000.02
2017-12-10T02:12:57.310Z,999.92
2017-12-10T02:13:54.817Z,999.90
2017-12-10T02:15:48.689Z,999.81
2017-12-10T02:16:48.698Z,999.77
2017-12-10T02:18:44.647Z,999.67
2017-12-10T02:19:44.601Z,999.68
2017-12-10T02:21:40.541Z,999.64
2017-12-10T02:22:40.527Z,999.62
2017-12-10T02:24:35.473Z,999.60
2017-12-10T02:25:34.947Z,999.54
2017-12-10T02:27:29.405Z,999.49
2017-12-10T02:28:29.357Z,999.47
2017-12-10T02:30:23.831Z,999.44
2017-12-10T02:31:24.337Z,999.36
2017-12-10T02:33:18.243Z,999.32
2017-12-10T02:34:18.183Z,999.33
2017-12-10T02:36:14.143Z,999.22
2017-12-10T02:37:14.632Z,999.23
2017-12-10T02:39:09.073Z,999.14
2017-12-10T02:40:08.527Z,999.08
2017-12-10T02:42:03.982Z,999.08
2017-12-10T02:43:03.479Z,999.07
2017-12-10T02:44:56.414Z,999.01
2017-12-10T02:45:56.368Z,998.98
2017-12-10T02:47:50.843Z,998.91
2017-12-10T02:48:50.801Z,998.87
2017-12-10T02:50:44.257Z,998.85
2017-12-10T02:51:45.244Z,998.81
2017-12-10T02:53:38.191Z,998.82
2017-12-10T02:54:37.671Z,998.70
2017-12-10T02:56:32.142Z,998.70
2017-12-10T02:57:32.087Z,998.70
2017-12-10T02:59:26.027Z,998.67
2017-12-10T03:00:25.520Z,998.64
2017-12-10T03:02:20.013Z,998.61
2017-12-10T03:03:20.958Z,998.63
2017-12-10T03:05:14.948Z,998.67
2017-12-10T03:06:14.445Z,998.64
2017-12-10T03:08:08.876Z,998.58
2017-12-10T03:09:08.842Z,998.56
2017-12-10T03:11:03.263Z,998.46
2017-12-10T03:12:03.251Z,998.47
2017-12-10T03:14:00.208Z,998.33
2017-12-10T03:14:59.205Z,998.33
2017-12-10T03:16:52.653Z,998.23
2017-12-10T03:17:53.134Z,998.17
2017-12-10T03:19:47.574Z,998.13
2017-12-10T03:20:47.040Z,998.12
2017-12-10T03:22:43.002Z,997.99
2017-12-10T03:23:42.942Z,997.95
2017-12-10T03:25:37.902Z,997.93
2017-12-10T03:26:37.359Z,997.88
2017-12-10T03:28:32.796Z,997.86
2017-12-10T03:29:32.320Z,997.82
2017-12-10T03:31:28.238Z,997.79
2017-12-10T03:32:28.231Z,997.74
2017-12-10T03:34:22.647Z,997.72
2017-12-10T03:35:22.130Z,997.65
2017-12-10T03:37:18.096Z,997.53
2017-12-10T03:38:18.590Z,997.52
2017-12-10T03:40:12.527Z,997.49
2017-12-10T03:41:13.023Z,997.45
2017-12-10T03:43:08.968Z,997.38
2017-12-10T03:44:08.414Z,997.38
2017-12-10T03:46:04.848Z,997.35
2017-12-10T03:47:04.876Z,997.32
2017-12-10T03:49:00.286Z,997.28
2017-12-10T03:50:00.269Z,997.25
2017-12-10T03:51:56.224Z,997.19
2017-12-10T03:52:56.194Z,997.21
2017-12-10T03:54:51.635Z,997.16
2017-12-10T03:55:50.625Z,997.16
2017-12-10T03:57:44.046Z,997.12
2017-12-10T03:58:44.058Z,997.07
2017-12-10T04:00:40.013Z,997.08
2017-12-10T04:01:40.497Z,996.98
2017-12-10T04:03:36.939Z,996.91
2017-12-10T04:04:36.430Z,996.89
2017-12-10T04:06:30.850Z,996.79
2017-12-10T04:07:30.327Z,996.74
2017-12-10T04:09:24.764Z,996.73
2017-12-10T04:10:25.263Z,996.73
2017-12-10T04:12:19.221Z,996.69
2017-12-10T04:13:19.193Z,996.71
2017-12-10T04:15:15.134Z,996.63
2017-12-10T04:16:15.118Z,996.66
2017-12-10T04:18:10.558Z,996.59
2017-12-10T04:19:09.584Z,996.60
2017-12-10T04:21:03.003Z,996.57
2017-12-10T04:22:02.990Z,996.59
2017-12-10T04:23:57.940Z,996.53
2017-12-10T04:24:57.942Z,996.51
2017-12-10T04:26:52.375Z,996.44
2017-12-10T04:27:51.851Z,996.46
2017-12-10T04:29:46.254Z,996.39
2017-12-10T04:30:46.287Z,996.34
2017-12-10T04:32:41.220Z,996.29
2017-12-10T04:33:40.683Z,996.30
2017-12-10T04:35:35.146Z,996.26
2017-12-10T04:36:35.121Z,996.21
2017-12-10T04:38:32.057Z,996.16
2017-12-10T04:39:31.581Z,996.16
2017-12-10T04:41:26.973Z,996.15
2017-12-10T04:42:26.972Z,996.12
2017-12-10T04:44:22.919Z,996.10
2017-12-10T04:45:21.914Z,996.11
2017-12-10T04:47:15.841Z,996.05
2017-12-10T04:48:15.824Z,996.01
2017-12-10T04:50:10.292Z,995.93
2017-12-10T04:51:10.269Z,995.86
2017-12-10T04:53:04.207Z,995.74
2017-12-10T04:54:04.205Z,995.70
2017-12-10T04:55:59.107Z,995.58
2017-12-10T04:56:58.070Z,995.56
2017-12-10T04:58:52.042Z,995.48
2017-12-10T04:59:52.041Z,995.47
2017-12-10T05:01:46.446Z,995.37
2017-12-10T05:02:46.439Z,995.29
2017-12-10T05:04:39.345Z,995.25
2017-12-10T05:05:39.857Z,995.20
2017-12-10T05:07:38.273Z,995.13
2017-12-10T05:08:37.781Z,995.10
2017-12-10T05:10:32.223Z,995.06
2017-12-10T05:11:32.717Z,995.01
2017-12-10T05:13:28.274Z,994.90
2017-12-10T05:14:28.268Z,994.90
2017-12-10T05:16:21.687Z,994.82
2017-12-10T05:17:21.163Z,994.79
2017-12-10T05:19:15.634Z,994.77
2017-12-10T05:20:16.116Z,994.72
2017-12-10T05:22:11.038Z,994.69
2017-12-10T05:23:10.014Z,994.67
2017-12-10T05:25:04.445Z,994.60
2017-12-10T05:26:04.954Z,994.55
2017-12-10T05:27:58.382Z,994.50
2017-12-10T05:28:57.856Z,994.44
2017-12-10T05:30:52.302Z,994.37
2017-12-10T05:31:52.819Z,994.28
2017-12-10T05:33:46.677Z,994.24
2017-12-10T05:34:45.693Z,994.16
2017-12-10T05:36:40.124Z,994.13
2017-12-10T05:37:40.112Z,994.02
2017-12-10T05:39:33.539Z,993.97
2017-12-10T05:40:33.521Z,993.95
2017-12-10T05:42:27.954Z,993.86
2017-12-10T05:43:28.483Z,993.81
2017-12-10T05:45:22.363Z,993.79
2017-12-10T05:46:22.862Z,993.77
2017-12-10T05:48:15.805Z,993.74
2017-12-10T05:49:15.774Z,993.65
2017-12-10T05:51:12.731Z,993.66
2017-12-10T05:52:12.219Z,993.66
2017-12-10T05:54:06.167Z,993.58
2017-12-10T05:55:06.078Z,993.51
2017-12-10T05:56:59.539Z,993.46
2017-12-10T05:58:00.062Z,993.43
2017-12-10T05:59:54.470Z,993.37
2017-12-10T06:00:54.482Z,993.30
2017-12-10T06:02:49.406Z,993.25
2017-12-10T06:03:48.911Z,993.18
2017-12-10T06:05:43.329Z,993.06
2017-12-10T06:06:43.327Z,993.03
2017-12-10T06:08:36.781Z,992.97
2017-12-10T06:09:36.785Z,992.92
2017-12-10T06:11:31.195Z,992.86
2017-12-10T06:12:31.212Z,992.79
2017-12-10T06:14:25.137Z,992.72
2017-12-10T06:15:24.633Z,992.72
2017-12-10T06:17:18.056Z,992.70
2017-12-10T06:18:18.060Z,992.67
2017-12-10T06:20:12.964Z,992.54
2017-12-10T06:21:12.468Z,992.50
2017-12-10T06:23:07.392Z,992.38
2017-12-10T06:24:06.897Z,992.34
2017-12-10T06:25:59.799Z,992.29
2017-12-10T06:27:00.303Z,992.28
2017-12-10T06:28:55.197Z,992.21
2017-12-10T06:29:54.697Z,992.19
2017-12-10T06:31:52.151Z,992.17
2017-12-10T06:32:52.640Z,992.13
2017-12-10T06:34:46.561Z,992.16
2017-12-10T06:35:47.056Z,992.13
2017-12-10T06:37:41.982Z,992.08
2017-12-10T06:38:41.996Z,992.05
2017-12-10T06:40:34.522Z,992.00
2017-12-10T06:41:34.988Z,991.95
2017-12-10T06:43:29.440Z,991.91
2017-12-10T06:44:31.450Z,991.87
2017-12-10T06:46:22.859Z,991.79
2017-12-10T06:47:22.840Z,991.78
2017-12-10T06:49:16.781Z,991.65
2017-12-10T06:50:15.763Z,991.68
2017-12-10T06:52:13.702Z,991.57
2017-12-10T06:53:12.201Z,991.59
2017-12-10T06:55:06.660Z,991.49
2017-12-10T06:56:06.640Z,991.42
2017-12-10T06:58:00.577Z,991.34
2017-12-10T06:59:01.108Z,991.32
2017-12-10T07:00:55.005Z,991.18
2017-12-10T07:01:54.995Z,991.20
2017-12-10T07:03:50.436Z,991.11
2017-12-10T07:04:49.425Z,991.05
2017-12-10T07:06:42.870Z,991.02
2017-12-10T07:07:43.379Z,991.00
2017-12-10T07:09:36.789Z,990.82
2017-12-10T07:10:36.267Z,990.69
2017-12-10T07:12:30.663Z,990.63
2017-12-10T07:13:30.659Z,990.64
2017-12-10T07:15:25.113Z,990.62
2017-12-10T07:16:25.079Z,990.57
2017-12-10T07:18:19.527Z,990.49
2017-12-10T07:19:19.518Z,990.52
2017-12-10T07:21:13.942Z,990.42
2017-12-10T07:22:13.929Z,990.24
2017-12-10T07:24:08.344Z,990.26
2017-12-10T07:25:08.328Z,990.24
2017-12-10T07:27:03.766Z,990.21
2017-12-10T07:28:03.274Z,990.16
2017-12-10T07:29:57.205Z,990.13
2017-12-10T07:30:57.193Z,990.03
2017-12-10T07:32:53.159Z,990.01
2017-12-10T07:33:53.107Z,989.93
2017-12-10T07:35:47.550Z,989.90
2017-12-10T07:36:47.506Z,989.83
2017-12-10T07:38:41.921Z,989.74
2017-12-10T07:39:42.452Z,989.65
2017-12-10T07:41:38.366Z,989.60
2017-12-10T07:42:37.838Z,989.58
2017-12-10T07:44:32.298Z,989.58
2017-12-10T07:45:32.271Z,989.51
2017-12-10T07:47:28.230Z,989.46
2017-12-10T07:48:28.188Z,989.32
2017-12-10T07:50:22.628Z,989.26
2017-12-10T07:51:22.605Z,989.22
2017-12-10T07:53:18.064Z,989.02
2017-12-10T07:54:18.556Z,989.06
2017-12-10T07:56:11.473Z,988.90
2017-12-10T07:57:11.988Z,988.93
2017-12-10T07:59:05.906Z,988.83
2017-12-10T08:00:06.382Z,988.76
2017-12-10T08:02:00.280Z,988.65
2017-12-10T08:03:01.728Z,988.60
2017-12-10T08:04:53.694Z,988.52
2017-12-10T08:05:53.706Z,988.43
2017-12-10T08:07:48.650Z,988.39
2017-12-10T08:08:48.660Z,988.37
2017-12-10T08:10:43.089Z,988.22
2017-12-10T08:11:42.553Z,988.20
2017-12-10T08:13:39.954Z,988.20
2017-12-10T08:14:38.495Z,988.09
2017-12-10T08:16:32.900Z,988.10
2017-12-10T08:17:32.920Z,988.07
2017-12-10T08:19:26.393Z,988.01
2017-12-10T08:20:26.861Z,987.99
2017-12-10T08:22:21.794Z,987.87
2017-12-10T08:24:49.269Z,987.81
2017-12-10T08:25:51.161Z,987.73
2017-12-10T08:28:03.984Z,987.75
2017-12-10T08:28:56.365Z,987.73
2017-12-10T08:30:50.828Z,987.69
2017-12-10T08:31:51.319Z,987.62
2017-12-10T08:33:44.303Z,987.54
2017-12-10T08:34:44.283Z,987.43
2017-12-10T08:36:39.659Z,987.32
2017-12-10T08:37:38.720Z,987.29
2017-12-10T08:39:33.156Z,987.23
2017-12-10T08:40:33.649Z,987.16
2017-12-10T08:42:27.591Z,987.04
2017-12-10T08:43:26.559Z,986.99
2017-12-10T08:45:22.494Z,986.94
2017-12-10T08:46:21.482Z,986.92
2017-12-10T08:48:15.379Z,986.77
2017-12-10T08:49:15.897Z,986.76
2017-12-10T08:51:11.349Z,986.58
2017-12-10T08:52:11.829Z,986.56
2017-12-10T08:54:06.268Z,986.41
2017-12-10T08:55:06.283Z,986.38
2017-12-10T08:57:05.691Z,986.29
2017-12-10T08:58:04.684Z,986.20
2017-12-10T08:59:58.758Z,986.01
2017-12-10T09:00:58.220Z,985.94
2017-12-10T09:02:54.156Z,985.76
2017-12-10T09:03:54.668Z,985.77
2017-12-10T09:05:51.070Z,985.60
2017-12-10T09:06:51.067Z,985.66
2017-12-10T09:08:45.496Z,985.51
2017-12-10T09:09:44.655Z,985.46
2017-12-10T09:11:44.994Z,985.39
2017-12-10T09:12:44.972Z,985.29
2017-12-10T09:14:40.334Z,985.13
2017-12-10T09:15:39.382Z,985.07
2017-12-10T09:17:32.823Z,984.93
2017-12-10T09:18:32.823Z,984.91
2017-12-10T09:20:26.754Z,985.01
2017-12-10T09:21:26.753Z,985.06
2017-12-10T09:23:19.636Z,985.09
2017-12-10T09:24:20.161Z,984.96
2017-12-10T09:26:14.066Z,984.89
2017-12-10T09:27:13.579Z,984.94
2017-12-10T09:29:08.498Z,984.86
2017-12-10T09:30:07.995Z,984.82
2017-12-10T09:32:00.932Z,984.80
2017-12-10T09:33:01.415Z,984.69
2017-12-10T09:34:57.853Z,984.55
2017-12-10T09:35:56.814Z,984.46
2017-12-10T09:37:53.769Z,984.39
2017-12-10T09:38:52.740Z,984.35
2017-12-10T09:40:48.704Z,984.26
2017-12-10T09:41:49.180Z,984.16
2017-12-10T09:43:43.128Z,984.09
2017-12-10T09:44:43.110Z,984.01
2017-12-10T09:46:37.048Z,983.80
2017-12-10T09:47:36.526Z,983.78
2017-12-10T09:49:34.488Z,983.71
2017-12-10T09:50:34.982Z,983.72
2017-12-10T09:52:28.852Z,983.73
2017-12-10T09:53:29.405Z,983.71
2017-12-10T09:55:24.870Z,983.61
2017-12-10T09:56:23.808Z,983.57
2017-12-10T09:58:16.749Z,983.42
2017-12-10T09:59:17.231Z,983.44
2017-12-10T10:01:13.652Z,983.30
2017-12-10T10:02:13.162Z,983.32
2017-12-10T10:04:09.100Z,983.11
2017-12-10T10:05:08.583Z,983.06
2017-12-10T10:07:03.517Z,982.91
2017-12-10T10:08:03.521Z,982.85
2017-12-10T10:09:57.463Z,982.70
2017-12-10T10:10:57.950Z,982.67
2017-12-10T10:12:51.909Z,982.45
2017-12-10T10:13:53.361Z,982.24
2017-12-10T10:15:46.280Z,982.25
2017-12-10T10:16:46.793Z,982.14
2017-12-10T10:18:43.207Z,982.06
2017-12-10T10:19:42.695Z,981.91
2017-12-10T10:21:36.646Z,981.70
2017-12-10T10:22:37.077Z,981.68
2017-12-10T10:24:30.066Z,981.60
2017-12-10T10:25:30.551Z,981.43
2017-12-10T10:27:25.473Z,981.23
2017-12-10T10:28:24.974Z,981.03
2017-12-10T10:30:21.891Z,980.82
2017-12-10T10:31:21.901Z,980.73
2017-12-10T10:33:15.763Z,980.51
2017-12-10T10:34:16.290Z,980.38
2017-12-10T10:36:13.802Z,980.26
2017-12-10T10:37:14.694Z,980.19
2017-12-10T10:39:08.198Z,980.01
2017-12-10T10:40:08.732Z,979.92
2017-12-10T10:42:04.186Z,979.64
2017-12-10T10:43:04.642Z,979.49
2017-12-10T10:44:59.073Z,979.40
2017-12-10T10:45:58.561Z,979.34
2017-12-10T10:47:57.016Z,979.35
2017-12-10T10:48:56.585Z,979.33
2017-12-10T10:50:53.025Z,979.33
2017-12-10T10:51:52.497Z,979.24
2017-12-10T10:53:48.442Z,979.19
2017-12-10T10:54:48.945Z,979.18
2017-12-10T10:56:44.388Z,979.03
2017-12-10T10:57:44.849Z,978.94
2017-12-10T10:59:40.264Z,978.82
2017-12-10T11:00:40.242Z,978.67
2017-12-10T11:02:35.182Z,978.69
2017-12-10T11:03:34.637Z,978.72
2017-12-10T11:05:31.080Z,978.63
2017-12-10T11:06:30.545Z,978.60
2017-12-10T11:08:29.008Z,978.49
2017-12-10T11:09:26.463Z,978.46
2017-12-10T11:11:21.425Z,978.31
2017-12-10T11:12:20.936Z,978.30
2017-12-10T11:14:15.347Z,978.15
2017-12-10T11:15:15.347Z,978.17
2017-12-10T11:17:11.279Z,977.88
2017-12-10T11:18:11.266Z,977.91
2017-12-10T11:20:07.187Z,977.61
2017-12-10T11:21:07.713Z,977.61
2017-12-10T11:23:03.088Z,977.61
2017-12-10T11:24:03.077Z,977.54
2017-12-10T11:25:59.562Z,977.41
2017-12-10T11:26:59.012Z,977.35
2017-12-10T11:28:56.495Z,977.11
2017-12-10T11:29:54.915Z,977.00
2017-12-10T11:31:51.362Z,977.03
2017-12-10T11:32:50.871Z,976.92
2017-12-10T11:34:46.784Z,976.87
2017-12-10T11:35:46.749Z,976.87
2017-12-10T11:37:43.203Z,977.03
2017-12-10T11:38:42.692Z,977.04
2017-12-10T11:40:38.624Z,977.09
2017-12-10T11:41:38.605Z,977.14
2017-12-10T11:43:34.555Z,977.03
2017-12-10T11:44:34.519Z,976.98
2017-12-10T11:46:30.470Z,976.90
2017-12-10T11:47:30.446Z,976.82
2017-12-10T11:49:26.892Z,976.81
2017-12-10T11:50:26.348Z,976.70
2017-12-10T11:52:22.303Z,976.61
2017-12-10T11:53:22.794Z,976.55
2017-12-10T11:55:18.732Z,976.55
2017-12-10T11:56:18.179Z,976.55
2017-12-10T11:58:13.169Z,976.65
2017-12-10T11:59:12.590Z,976.53
2017-12-10T12:01:12.038Z,976.55
2017-12-10T12:02:11.518Z,976.39
2017-12-10T12:04:04.968Z,976.37
2017-12-10T12:05:04.931Z,976.38
2017-12-10T12:07:01.884Z,976.36
2017-12-10T12:08:00.848Z,976.36
2017-12-10T12:09:56.820Z,976.30
2017-12-10T12:10:57.802Z,976.24
2017-12-10T12:12:52.722Z,976.23
2017-12-10T12:13:52.686Z,976.24
2017-12-10T12:15:49.148Z,976.26
2017-12-10T12:16:48.598Z,976.21
2017-12-10T12:18:42.043Z,976.14
2017-12-10T12:19:42.010Z,975.99
2017-12-10T12:21:37.935Z,976.03
2017-12-10T12:22:37.935Z,975.88
2017-12-10T12:24:32.359Z,976.01
2017-12-10T12:25:32.359Z,975.95
2017-12-10T12:27:29.300Z,975.84
2017-12-10T12:28:28.265Z,975.83
2017-12-10T12:30:24.231Z,975.86
2017-12-10T12:31:24.174Z,975.90
2017-12-10T12:33:21.136Z,975.89
2017-12-10T12:34:20.627Z,975.94
2017-12-10T12:36:22.012Z,975.88
2017-12-10T12:37:20.497Z,975.87
2017-12-10T12:39:16.935Z,975.96
2017-12-10T12:40:16.415Z,975.97
2017-12-10T12:42:10.876Z,975.71
2017-12-10T12:43:10.852Z,975.63
2017-12-10T12:45:06.801Z,975.56
2017-12-10T12:46:06.742Z,975.18
2017-12-10T12:48:03.181Z,975.05
2017-12-10T12:49:03.184Z,975.08
2017-12-10T12:50:58.581Z,975.17
2017-12-10T12:51:58.573Z,975.15
2017-12-10T12:53:53.001Z,975.17
2017-12-10T12:54:52.988Z,975.13
2017-12-10T12:56:48.936Z,975.15
2017-12-10T12:57:48.921Z,975.11
2017-12-10T12:59:44.855Z,974.91
2017-12-10T13:00:45.362Z,974.94
2017-12-10T13:02:40.798Z,974.94
2017-12-10T13:03:41.302Z,974.99
2017-12-10T13:05:38.768Z,974.99
2017-12-10T13:06:38.781Z,974.91
2017-12-10T13:08:36.760Z,974.92
2017-12-10T13:09:36.711Z,974.87
2017-12-10T13:11:35.643Z,974.66
2017-12-10T13:12:34.614Z,974.67
2017-12-10T13:14:35.581Z,974.62
2017-12-10T13:15:35.054Z,974.48
2017-12-10T13:17:35.530Z,974.55
2017-12-10T13:18:36.010Z,974.59
2017-12-10T13:20:36.927Z,974.56
2017-12-10T13:21:36.990Z,974.77
2017-12-10T13:23:41.858Z,974.62
2017-12-10T13:24:42.987Z,974.69
2017-12-10T13:26:39.256Z,974.56
2017-12-10T13:27:39.839Z,974.51
2017-12-10T13:29:38.688Z,974.55
2017-12-10T13:30:38.172Z,974.51
2017-12-10T13:32:35.231Z,974.48
2017-12-10T13:33:35.164Z,974.42
2017-12-10T13:35:31.134Z,974.41
2017-12-10T13:36:31.141Z,974.32
2017-12-10T13:38:27.088Z,974.20
2017-12-10T13:39:27.562Z,974.11
2017-12-10T13:41:22.979Z,974.08
2017-12-10T13:42:22.948Z,973.99
2017-12-10T13:44:18.904Z,973.99
2017-12-10T13:45:19.386Z,973.94
2017-12-10T13:47:13.297Z,973.89
2017-12-10T13:48:13.295Z,973.71
2017-12-10T13:50:06.723Z,973.70
2017-12-10T13:51:06.696Z,973.63
2017-12-10T13:53:00.135Z,973.59
2017-12-10T13:54:00.102Z,973.62
2017-12-10T13:55:53.547Z,973.58
2017-12-10T13:56:54.044Z,973.59
2017-12-10T13:58:48.480Z,973.47
2017-12-10T13:59:47.928Z,973.47
2017-12-10T14:01:41.346Z,973.41
2017-12-10T14:02:41.348Z,973.46
2017-12-10T14:04:35.804Z,973.39
2017-12-10T14:05:36.299Z,973.41
2017-12-10T14:07:29.193Z,973.51
2017-12-10T14:08:29.742Z,973.49
2017-12-10T14:10:23.654Z,973.33
2017-12-10T14:11:23.608Z,973.30
2017-12-10T14:13:18.550Z,973.31
2017-12-10T14:14:18.005Z,973.23
2017-12-10T14:16:13.464Z,973.26
2017-12-10T14:17:12.440Z,973.31
2017-12-10T14:19:07.880Z,973.22
2017-12-10T14:20:06.864Z,973.24
2017-12-10T14:22:01.327Z,973.12
2017-12-10T14:23:01.261Z,973.15
2017-12-10T14:24:55.702Z,973.19
2017-12-10T14:25:55.681Z,973.11
2017-12-10T14:27:51.061Z,973.20
2017-12-10T14:28:50.643Z,973.14
2017-12-10T14:30:46.044Z,973.05
2017-12-10T14:31:46.034Z,973.05
2017-12-10T14:33:41.963Z,972.95
2017-12-10T14:34:41.958Z,973.00
2017-12-10T14:36:36.394Z,972.98
2017-12-10T14:37:36.900Z,972.87
2017-12-10T14:39:31.824Z,972.84
2017-12-10T14:40:30.833Z,972.84
2017-12-10T14:42:25.227Z,972.74
2017-12-10T14:43:25.222Z,972.78
2017-12-10T14:45:20.669Z,972.73
2017-12-10T14:46:19.668Z,972.75
2017-12-10T14:48:14.101Z,972.69
2017-12-10T14:49:14.087Z,972.74
2017-12-10T14:51:08.553Z,972.68
2017-12-10T14:52:09.034Z,972.68
2017-12-10T14:54:03.481Z,972.63
2017-12-10T14:55:03.473Z,972.61
2017-12-10T14:56:58.901Z,972.68
2017-12-10T14:57:58.868Z,972.69
2017-12-10T14:59:52.797Z,972.70
2017-12-10T15:00:52.277Z,972.68
2017-12-10T15:02:48.749Z,972.70
2017-12-10T15:03:48.202Z,972.67
2017-12-10T15:05:42.137Z,972.70
2017-12-10T15:06:41.622Z,972.72
2017-12-10T15:08:37.583Z,972.66
2017-12-10T15:09:37.547Z,972.69
2017-12-10T15:11:33.500Z,972.65
2017-12-10T15:12:33.452Z,972.65
2017-12-10T15:14:29.414Z,972.65
2017-12-10T15:15:29.404Z,972.61
2017-12-10T15:17:25.328Z,972.70
2017-12-10T15:18:25.314Z,972.68
2017-12-10T15:20:19.786Z,972.68
2017-12-10T15:21:20.276Z,972.70
2017-12-10T15:23:15.689Z,972.63
2017-12-10T15:24:15.649Z,972.68
2017-12-10T15:26:11.565Z,972.62
2017-12-10T15:27:11.590Z,972.65
2017-12-10T15:29:08.024Z,972.56
2017-12-10T15:30:07.512Z,972.58
2017-12-10T15:32:04.445Z,972.46
2017-12-10T15:33:03.440Z,972.50
2017-12-10T15:34:59.373Z,972.43
2017-12-10T15:35:59.377Z,972.47
2017-12-10T15:37:55.828Z,972.49
2017-12-10T15:38:55.291Z,972.36
2017-12-10T15:40:51.244Z,972.35
2017-12-10T15:41:51.227Z,972.23
2017-12-10T15:43:47.152Z,972.28
2017-12-10T15:44:47.666Z,972.28
2017-12-10T15:46:43.085Z,972.24
2017-12-10T15:47:43.578Z,972.20
2017-12-10T15:49:39.033Z,972.17
2017-12-10T15:50:38.978Z,972.16
2017-12-10T15:52:32.932Z,972.18
2017-12-10T15:53:32.370Z,972.17
2017-12-10T15:55:28.815Z,972.19
2017-12-10T15:56:28.319Z,972.21
2017-12-10T15:58:24.732Z,972.12
2017-12-10T15:59:24.205Z,972.17
2017-12-10T16:01:18.643Z,972.08
2017-12-10T16:02:18.629Z,972.16
2017-12-10T16:04:15.500Z,972.09
2017-12-10T16:05:14.556Z,972.10
2017-12-10T16:07:08.510Z,972.07
2017-12-10T16:08:07.975Z,972.05
2017-12-10T16:10:04.926Z,972.06
2017-12-10T16:11:03.895Z,972.07
2017-12-10T16:12:59.821Z,972.02
2017-12-10T16:14:00.781Z,972.00
2017-12-10T16:15:55.752Z,972.00
2017-12-10T16:16:55.733Z,972.02
2017-12-10T16:18:51.657Z,971.91
2017-12-10T16:19:52.171Z,971.91
2017-12-10T16:21:47.622Z,971.98
2017-12-10T16:22:47.584Z,971.95
2017-12-10T16:24:43.539Z,971.99
2017-12-10T16:25:43.487Z,971.92
2017-12-10T16:27:39.401Z,971.93
2017-12-10T16:28:39.943Z,971.93
2017-12-10T16:30:35.344Z,971.87
2017-12-10T16:31:35.335Z,971.86
2017-12-10T16:33:31.295Z,971.93
2017-12-10T16:34:31.793Z,971.98
2017-12-10T16:36:27.159Z,972.02
2017-12-10T16:37:27.160Z,971.91
2017-12-10T16:39:23.120Z,971.88
2017-12-10T16:40:23.077Z,971.90
2017-12-10T16:42:19.530Z,971.97
2017-12-10T16:43:19.010Z,971.97
2017-12-10T16:45:15.997Z,971.88
2017-12-10T16:46:15.469Z,971.99
2017-12-10T16:48:11.390Z,971.89
2017-12-10T16:49:10.888Z,971.84
2017-12-10T16:51:07.840Z,971.87
2017-12-10T16:52:08.262Z,971.91
2017-12-10T16:54:05.291Z,971.91
2017-12-10T16:55:04.760Z,971.86
2017-12-10T16:57:01.197Z,971.84
2017-12-10T16:58:00.692Z,971.94
2017-12-10T16:59:56.652Z,971.91
2017-12-10T17:00:56.603Z,971.85
2017-12-10T17:02:52.572Z,971.86
2017-12-10T17:03:52.498Z,971.80
2017-12-10T17:05:48.950Z,971.77
2017-12-10T17:06:48.426Z,971.78
2017-12-10T17:08:42.868Z,971.74
2017-12-10T17:09:43.378Z,971.76
2017-12-10T17:11:38.798Z,971.68
2017-12-10T17:12:38.876Z,971.66
2017-12-10T17:14:34.702Z,971.73
2017-12-10T17:15:35.301Z,971.74
2017-12-10T17:17:31.163Z,971.85
2017-12-10T17:18:31.153Z,971.84
2017-12-10T17:20:26.546Z,971.79
2017-12-10T17:21:27.084Z,971.81
2017-12-10T17:23:22.452Z,971.72
2017-12-10T17:24:22.443Z,971.58
2017-12-10T17:26:18.375Z,971.59
2017-12-10T17:27:18.374Z,971.60
2017-12-10T17:29:15.327Z,971.63
2017-12-10T17:30:14.825Z,971.57
2017-12-10T17:32:10.275Z,971.67
2017-12-10T17:33:10.767Z,971.57
2017-12-10T17:35:06.696Z,971.60
2017-12-10T17:36:06.183Z,971.62
2017-12-10T17:38:02.622Z,971.61
2017-12-10T17:39:02.097Z,971.58
2017-12-10T17:40:56.564Z,971.61
2017-12-10T17:41:57.042Z,971.49
2017-12-10T17:43:51.466Z,971.67
2017-12-10T17:44:51.478Z,971.59
2017-12-10T17:46:45.927Z,971.53
2017-12-10T17:47:45.379Z,971.56
2017-12-10T17:49:39.808Z,971.63
2017-12-10T17:50:40.335Z,971.69
2017-12-10T17:52:34.214Z,971.66
2017-12-10T17:53:34.194Z,971.73
2017-12-10T17:55:30.635Z,971.68
2017-12-10T17:56:30.114Z,971.53
2017-12-10T17:58:26.018Z,971.69
2017-12-10T17:59:26.029Z,971.67
2017-12-10T18:01:20.975Z,971.74
2017-12-10T18:02:20.467Z,971.81
2017-12-10T18:04:15.390Z,971.83
2017-12-10T18:05:14.873Z,971.90
2017-12-10T18:07:11.330Z,971.78
2017-12-10T18:08:10.807Z,971.92
2017-12-10T18:10:07.790Z,971.83